Naval Air Station/ Jrb, Texas
Current Conditions -  °F | °C
As of 10:52 PM on Saturday 25 Oct 2014 (Local Time) from KNFW Reporting Station
Clear Clear  
Wind Chill: 75°   Ceiling: Unl
Heat Index: 75°   Visibility: 10mi
Dew Point: 59°   Wind: 7mph
Humidity: 57%   Direction: 180°S
Pressure: 30.09"   Gusts: NA
Location:  32.7772°N, 97.4184°W
Report Text: KNFW 260352Z AUTO 18006KT 10SM CLR 24/15 A3009 RMK AO2 SLP171 T02390150 CHINO N VISNO N $
Loading
Personal Weather Stations






























Interactive Weather Map
Tropical Storm Tracking
New forecast layout! Learn more

10-Day Weather Forecast

Advertisements
Track Severe Weather on mobile